createdAt,value
2019-02-17T00:00:38.674Z,2.30
2019-02-17T00:03:06.262Z,2.30
2019-02-17T00:05:33.842Z,2.30
2019-02-17T00:08:01.481Z,2.40
2019-02-17T00:10:29.066Z,2.40
2019-02-17T00:12:57.410Z,2.30
2019-02-17T00:15:25.046Z,2.30
2019-02-17T00:17:52.713Z,2.30
2019-02-17T00:20:20.294Z,2.20
2019-02-17T00:22:47.933Z,2.20
2019-02-17T00:25:15.522Z,2.10
2019-02-17T00:27:43.107Z,2.10
2019-02-17T00:30:10.732Z,2.00
2019-02-17T00:32:38.313Z,2.10
2019-02-17T00:35:05.903Z,2.10
2019-02-17T00:37:34.283Z,2.10
2019-02-17T00:40:02.650Z,2.00
2019-02-17T00:42:30.227Z,2.00
2019-02-17T00:44:57.860Z,2.00
2019-02-17T00:47:25.444Z,2.00
2019-02-17T00:49:53.040Z,1.90
2019-02-17T00:52:20.655Z,1.90
2019-02-17T00:54:48.231Z,1.90
2019-02-17T00:57:16.578Z,1.80
2019-02-17T00:59:44.191Z,1.80
2019-02-17T01:02:11.785Z,1.80
2019-02-17T01:04:39.368Z,1.80
2019-02-17T01:07:07.430Z,1.80
2019-02-17T01:09:35.012Z,1.70
2019-02-17T01:12:02.589Z,1.70
2019-02-17T01:14:30.237Z,1.70
2019-02-17T01:16:57.839Z,1.70
2019-02-17T01:19:25.434Z,1.60
2019-02-17T01:21:53.039Z,1.60
2019-02-17T01:24:21.405Z,1.60
2019-02-17T01:26:48.994Z,1.60
2019-02-17T01:29:20.501Z,1.60
2019-02-17T01:31:44.210Z,1.60
2019-02-17T01:34:12.577Z,1.50
2019-02-17T01:36:40.202Z,1.50
2019-02-17T01:39:07.787Z,1.50
2019-02-17T01:41:35.377Z,1.50
2019-02-17T01:44:03.764Z,1.50
2019-02-17T01:46:32.110Z,1.50
2019-02-17T01:48:59.687Z,1.40
2019-02-17T01:51:27.324Z,1.40
2019-02-17T01:53:54.913Z,1.40
2019-02-17T01:56:22.488Z,1.40
2019-02-17T01:58:50.870Z,1.50
2019-02-17T02:01:19.217Z,1.50
2019-02-17T02:03:46.805Z,1.40
2019-02-17T02:06:14.441Z,1.40
2019-02-17T02:08:42.024Z,1.40
2019-02-17T02:11:10.376Z,1.40
2019-02-17T02:13:38.029Z,1.40
2019-02-17T02:16:05.612Z,1.40
2019-02-17T02:18:33.201Z,1.60
2019-02-17T02:21:00.815Z,1.60
2019-02-17T02:23:28.393Z,1.70
2019-02-17T02:25:55.970Z,1.70
2019-02-17T02:28:23.589Z,1.60
2019-02-17T02:30:51.184Z,1.60
2019-02-17T02:33:19.936Z,1.50
2019-02-17T02:35:47.916Z,1.50
2019-02-17T02:38:15.510Z,1.40
2019-02-17T02:40:43.105Z,1.40
2019-02-17T02:43:10.723Z,1.50
2019-02-17T02:45:38.330Z,1.50
2019-02-17T02:48:05.926Z,1.40
2019-02-17T02:50:33.537Z,1.40
2019-02-17T02:53:01.894Z,1.30
2019-02-17T02:55:29.479Z,1.30
2019-02-17T02:57:57.903Z,1.20
2019-02-17T03:00:25.485Z,1.20
2019-02-17T03:02:53.076Z,1.20
2019-02-17T03:05:20.725Z,1.20
2019-02-17T03:07:48.307Z,1.20
2019-02-17T03:10:16.657Z,1.20
2019-02-17T03:12:44.281Z,1.20
2019-02-17T03:15:11.874Z,1.20
2019-02-17T03:17:39.486Z,1.30
2019-02-17T03:20:07.134Z,1.50
2019-02-17T03:22:34.708Z,1.70
2019-02-17T03:25:03.062Z,1.70
2019-02-17T03:27:30.676Z,1.60
2019-02-17T03:30:04.799Z,1.60
2019-02-17T03:32:25.846Z,1.50
2019-02-17T03:34:53.468Z,1.40
2019-02-17T03:37:21.048Z,1.40
2019-02-17T03:39:48.640Z,1.40
2019-02-17T03:42:17.049Z,1.30
2019-02-17T03:44:45.064Z,1.20
2019-02-17T03:47:12.686Z,1.20
2019-02-17T03:49:40.320Z,1.10
2019-02-17T03:52:08.672Z,1.00
2019-02-17T03:54:36.250Z,1.00
2019-02-17T03:57:03.870Z,1.00
2019-02-17T03:59:31.469Z,1.00
2019-02-17T04:01:59.086Z,1.00
2019-02-17T04:04:26.775Z,1.00
2019-02-17T04:06:54.313Z,1.00
2019-02-17T04:09:21.914Z,1.00
2019-02-17T04:11:49.527Z,1.00
2019-02-17T04:14:17.101Z,1.00
2019-02-17T04:16:44.687Z,1.00
2019-02-17T04:19:12.298Z,1.00
2019-02-17T04:21:39.895Z,1.00
2019-02-17T04:24:07.492Z,1.00
2019-02-17T04:26:35.143Z,1.00
2019-02-17T04:29:02.719Z,1.00
2019-02-17T04:31:30.302Z,1.00
2019-02-17T04:33:58.699Z,1.00
2019-02-17T04:36:26.280Z,1.00
2019-02-17T04:38:53.874Z,1.00
2019-02-17T04:41:21.505Z,1.00
2019-02-17T04:43:49.100Z,1.10
2019-02-17T04:46:16.667Z,1.00
2019-02-17T04:48:44.316Z,1.00
2019-02-17T04:51:11.904Z,1.00
2019-02-17T04:53:40.255Z,1.20
2019-02-17T04:56:07.875Z,1.20
2019-02-17T04:58:35.449Z,1.20
2019-02-17T05:01:03.028Z,1.20
2019-02-17T05:03:30.675Z,1.20
2019-02-17T05:05:58.296Z,1.20
2019-02-17T05:08:25.851Z,1.20
2019-02-17T05:10:54.640Z,1.30
2019-02-17T05:13:22.207Z,1.20
2019-02-17T05:15:49.802Z,1.30
2019-02-17T05:18:17.414Z,1.30
2019-02-17T05:20:45.002Z,1.20
2019-02-17T05:23:12.585Z,1.20
2019-02-17T05:25:40.233Z,1.10
2019-02-17T05:28:07.865Z,1.10
2019-02-17T05:30:35.483Z,1.10
2019-02-17T05:33:03.095Z,1.00
2019-02-17T05:35:30.672Z,1.00
2019-02-17T05:37:59.021Z,1.00
2019-02-17T05:40:26.647Z,0.90
2019-02-17T05:42:54.251Z,1.00
2019-02-17T05:45:21.834Z,0.90
2019-02-17T05:47:50.227Z,0.90
2019-02-17T05:50:18.577Z,0.90
2019-02-17T05:52:46.162Z,0.90
2019-02-17T05:55:14.598Z,0.90
2019-02-17T05:57:42.190Z,0.80
2019-02-17T06:00:10.541Z,0.80
2019-02-17T06:02:38.153Z,0.80
2019-02-17T06:05:05.749Z,0.80
2019-02-17T06:07:33.477Z,0.80
2019-02-17T06:10:01.886Z,0.70
2019-02-17T06:12:29.457Z,0.70
2019-02-17T06:14:57.048Z,0.70
2019-02-17T06:17:24.674Z,0.70
2019-02-17T06:19:52.267Z,0.70
2019-02-17T06:22:19.870Z,0.60
2019-02-17T06:24:48.250Z,0.60
2019-02-17T06:27:15.834Z,0.50
2019-02-17T06:29:43.420Z,0.50
2019-02-17T06:32:11.042Z,0.50
2019-02-17T06:34:38.650Z,0.50
2019-02-17T06:37:06.239Z,0.50
2019-02-17T06:39:34.629Z,0.40
2019-02-17T06:42:02.981Z,0.50
2019-02-17T06:44:30.562Z,0.50
2019-02-17T06:46:58.967Z,0.50
2019-02-17T06:49:27.321Z,0.50
2019-02-17T06:51:54.907Z,0.40
2019-02-17T06:54:22.528Z,0.40
2019-02-17T06:56:50.111Z,0.40
2019-02-17T06:59:18.454Z,0.50
2019-02-17T07:01:46.451Z,0.50
2019-02-17T07:04:14.030Z,0.50
2019-02-17T07:06:42.387Z,0.50
2019-02-17T07:11:41.855Z,0.50
2019-02-17T07:14:09.457Z,0.60
2019-02-17T07:16:37.045Z,0.60
2019-02-17T07:19:04.703Z,0.60
2019-02-17T07:21:32.306Z,0.60
2019-02-17T07:23:59.896Z,0.60
2019-02-17T07:26:27.522Z,0.50
2019-02-17T07:28:55.101Z,0.50
2019-02-17T07:31:22.805Z,0.50
2019-02-17T07:33:50.301Z,0.50
2019-02-17T07:36:17.888Z,0.50
2019-02-17T07:38:45.478Z,0.40
2019-02-17T07:41:13.102Z,0.40
2019-02-17T07:43:40.696Z,0.40
2019-02-17T07:46:08.282Z,0.50
2019-02-17T07:48:35.928Z,0.60
2019-02-17T07:51:03.513Z,0.50
2019-02-17T07:53:31.098Z,0.50
2019-02-17T07:55:58.719Z,0.50
2019-02-17T07:58:26.308Z,0.40
2019-02-17T08:00:53.915Z,0.40
2019-02-17T08:03:23.028Z,0.40
2019-02-17T08:05:50.584Z,0.40
2019-02-17T08:08:18.181Z,0.40
2019-02-17T08:10:45.800Z,0.40
2019-02-17T08:13:13.673Z,0.40
2019-02-17T08:15:41.252Z,0.40
2019-02-17T08:18:08.880Z,0.40
2019-02-17T08:20:36.699Z,0.40
2019-02-17T08:23:04.054Z,0.40
2019-02-17T08:25:32.059Z,0.40
2019-02-17T08:27:59.607Z,0.50
2019-02-17T08:30:27.964Z,0.60
2019-02-17T08:32:55.596Z,0.60
2019-02-17T08:35:23.175Z,0.60
2019-02-17T08:37:50.833Z,0.70
2019-02-17T08:40:18.373Z,0.70
2019-02-17T08:42:46.249Z,0.90
2019-02-17T08:45:13.838Z,1.00
2019-02-17T08:47:41.485Z,1.00
2019-02-17T08:50:09.068Z,1.10
2019-02-17T08:52:36.657Z,1.10
2019-02-17T08:55:04.273Z,1.20
2019-02-17T08:57:31.863Z,1.20
2019-02-17T09:00:00.215Z,1.40
2019-02-17T09:02:27.859Z,1.30
2019-02-17T09:04:56.566Z,1.40
2019-02-17T09:07:24.153Z,1.50
2019-02-17T09:09:52.577Z,1.60
2019-02-17T09:12:20.179Z,1.60
2019-02-17T09:14:48.003Z,1.60
2019-02-17T09:17:16.154Z,1.90
2019-02-17T09:19:43.754Z,1.90
2019-02-17T09:22:11.346Z,2.00
2019-02-17T09:24:38.965Z,2.10
2019-02-17T09:27:06.544Z,2.10
2019-02-17T09:29:34.123Z,2.40
2019-02-17T09:32:01.774Z,2.50
2019-02-17T09:34:29.402Z,2.50
2019-02-17T09:36:56.938Z,2.60
2019-02-17T09:39:25.370Z,3.00
2019-02-17T09:41:53.677Z,3.10
2019-02-17T09:44:21.256Z,3.00
2019-02-17T09:46:49.639Z,3.20
2019-02-17T09:49:17.990Z,3.30
2019-02-17T09:51:45.577Z,3.30
2019-02-17T09:54:13.992Z,3.40
2019-02-17T09:56:41.600Z,3.40
2019-02-17T09:59:09.186Z,3.60
2019-02-17T10:01:37.572Z,3.80
2019-02-17T10:04:05.149Z,3.80
2019-02-17T10:06:33.568Z,3.90
2019-02-17T10:09:01.218Z,4.00
2019-02-17T10:11:33.088Z,4.10
2019-02-17T10:13:59.404Z,4.20
2019-02-17T10:16:27.022Z,4.30
2019-02-17T10:18:55.366Z,4.50
2019-02-17T10:21:22.951Z,4.50
2019-02-17T10:23:50.570Z,4.70
2019-02-17T10:26:18.148Z,4.80
2019-02-17T10:28:45.742Z,4.90
2019-02-17T10:31:13.362Z,5.10
2019-02-17T10:33:40.941Z,5.20
2019-02-17T10:36:08.535Z,5.40
2019-02-17T10:38:36.167Z,5.50
2019-02-17T10:41:03.747Z,5.70
2019-02-17T10:43:31.344Z,5.80
2019-02-17T10:45:58.955Z,6.00
2019-02-17T10:48:26.553Z,6.20
2019-02-17T10:50:54.135Z,6.30
2019-02-17T10:53:21.772Z,6.60
2019-02-17T10:55:50.121Z,7.00
2019-02-17T10:58:17.697Z,6.90
2019-02-17T11:00:45.343Z,7.10
2019-02-17T11:03:12.928Z,7.20
2019-02-17T11:05:40.504Z,7.40
2019-02-17T11:08:08.880Z,7.90
2019-02-17T11:10:37.232Z,8.10
2019-02-17T11:13:04.813Z,8.00
2019-02-17T11:15:32.452Z,8.20
2019-02-17T11:18:00.038Z,8.40
2019-02-17T11:20:27.639Z,8.50
2019-02-17T11:22:55.293Z,8.70
2019-02-17T11:25:22.836Z,8.80
2019-02-17T11:27:50.419Z,8.90
2019-02-17T11:30:18.061Z,9.00
2019-02-17T11:32:55.241Z,9.30
2019-02-17T11:35:14.796Z,9.40
2019-02-17T11:37:42.418Z,9.40
2019-02-17T11:40:10.383Z,9.60
2019-02-17T11:42:37.955Z,9.70
2019-02-17T11:45:11.477Z,9.80
2019-02-17T11:47:39.059Z,9.90
2019-02-17T11:50:06.640Z,10.10
2019-02-17T11:52:35.077Z,10.40
2019-02-17T11:55:02.625Z,10.30
2019-02-17T11:57:30.211Z,10.50
2019-02-17T11:59:57.841Z,10.70
2019-02-17T12:02:25.539Z,10.80
2019-02-17T12:04:53.018Z,11.00
2019-02-17T12:07:21.683Z,11.10
2019-02-17T12:09:50.161Z,11.30
2019-02-17T12:12:17.801Z,11.40
2019-02-17T12:14:45.367Z,11.50
2019-02-17T12:17:12.952Z,11.70
2019-02-17T12:19:40.546Z,11.80
2019-02-17T12:22:08.975Z,12.20
2019-02-17T12:24:36.571Z,12.10
2019-02-17T12:27:04.171Z,12.30
2019-02-17T12:29:31.816Z,12.40
2019-02-17T12:32:00.175Z,12.60
2019-02-17T12:34:27.761Z,12.60
2019-02-17T12:36:55.400Z,12.70
2019-02-17T12:39:23.002Z,12.70
2019-02-17T12:41:50.598Z,12.80
2019-02-17T12:44:18.235Z,12.90
2019-02-17T12:46:45.818Z,12.90
2019-02-17T12:49:13.399Z,13.10
2019-02-17T12:51:41.037Z,13.20
2019-02-17T12:54:08.631Z,13.20
2019-02-17T12:56:36.236Z,13.40
2019-02-17T12:59:03.852Z,13.40
2019-02-17T13:01:31.439Z,13.50
2019-02-17T13:03:59.035Z,13.50
2019-02-17T13:06:26.775Z,13.50
2019-02-17T13:08:54.261Z,13.60
2019-02-17T13:11:21.854Z,13.60
2019-02-17T13:13:49.537Z,13.50
2019-02-17T13:16:17.066Z,13.60
2019-02-17T13:18:44.658Z,13.60
2019-02-17T13:21:13.061Z,13.70
2019-02-17T13:23:40.662Z,13.70
2019-02-17T13:26:08.242Z,13.80
2019-02-17T13:28:37.332Z,13.80
2019-02-17T13:31:04.918Z,13.80
2019-02-17T13:33:39.311Z,13.90
2019-02-17T13:36:00.167Z,14.00
2019-02-17T13:38:27.768Z,14.00
2019-02-17T13:40:55.359Z,14.10
2019-02-17T13:43:23.013Z,14.10
2019-02-17T13:45:50.598Z,14.10
2019-02-17T13:48:18.183Z,14.10
2019-02-17T13:50:45.812Z,14.20
2019-02-17T13:53:13.406Z,14.20
2019-02-17T13:55:41.046Z,14.20
2019-02-17T13:58:08.662Z,14.30
2019-02-17T14:00:36.246Z,14.30
2019-02-17T14:03:04.625Z,14.30
2019-02-17T14:05:31.755Z,14.30
2019-02-17T14:07:59.352Z,14.40
2019-02-17T14:10:26.945Z,14.50
2019-02-17T14:12:54.940Z,14.60
2019-02-17T14:15:22.542Z,14.60
2019-02-17T14:17:50.154Z,14.60
2019-02-17T14:20:17.790Z,14.60
2019-02-17T14:22:46.145Z,14.60
2019-02-17T14:25:13.735Z,14.60
2019-02-17T14:27:42.620Z,14.70
2019-02-17T14:30:10.975Z,14.70
2019-02-17T14:32:38.554Z,14.70
2019-02-17T14:35:07.027Z,14.60
2019-02-17T14:37:34.609Z,14.60
2019-02-17T14:40:02.976Z,14.60
2019-02-17T14:42:30.603Z,14.60
2019-02-17T14:44:58.202Z,14.70
2019-02-17T14:47:25.787Z,14.70
2019-02-17T14:49:53.419Z,14.70
2019-02-17T14:52:21.002Z,14.60
2019-02-17T14:54:51.067Z,14.60
2019-02-17T14:57:18.701Z,14.60
2019-02-17T14:59:46.292Z,14.60
2019-02-17T15:02:13.876Z,14.60
2019-02-17T15:04:41.532Z,14.60
2019-02-17T15:07:09.127Z,14.60
2019-02-17T15:09:37.479Z,14.60
2019-02-17T15:12:05.109Z,14.60
2019-02-17T15:14:32.690Z,14.70
2019-02-17T15:17:00.275Z,14.70
2019-02-17T15:19:27.904Z,14.70
2019-02-17T15:21:55.490Z,14.70
2019-02-17T15:24:23.083Z,14.70
2019-02-17T15:26:52.251Z,14.90
2019-02-17T15:29:19.843Z,14.90
2019-02-17T15:31:48.189Z,15.10
2019-02-17T15:34:18.771Z,15.10
2019-02-17T15:36:43.412Z,15.10
2019-02-17T15:39:10.995Z,15.00
2019-02-17T15:41:39.440Z,15.00
2019-02-17T15:44:07.745Z,15.00
2019-02-17T15:46:35.337Z,15.00
2019-02-17T15:49:02.969Z,15.00
2019-02-17T15:51:30.546Z,15.00
2019-02-17T15:53:58.914Z,15.00
2019-02-17T15:56:26.587Z,15.00
2019-02-17T15:58:54.185Z,15.00
2019-02-17T16:01:21.824Z,15.00
2019-02-17T16:03:50.508Z,15.10
2019-02-17T16:06:18.860Z,15.10
2019-02-17T16:08:46.804Z,15.10
2019-02-17T16:11:14.475Z,15.10
2019-02-17T16:13:42.056Z,15.30
2019-02-17T16:16:09.648Z,15.30
2019-02-17T16:18:38.039Z,15.50
2019-02-17T16:21:05.631Z,15.50
2019-02-17T16:23:33.222Z,15.40
2019-02-17T16:26:00.879Z,15.40
2019-02-17T16:28:28.457Z,15.30
2019-02-17T16:30:56.819Z,15.10
2019-02-17T16:33:24.445Z,15.10
2019-02-17T16:35:52.033Z,15.00
2019-02-17T16:38:19.630Z,14.90
2019-02-17T16:40:47.289Z,14.90
2019-02-17T16:43:14.869Z,14.90
2019-02-17T16:45:42.460Z,14.90
2019-02-17T16:48:10.097Z,14.80
2019-02-17T16:50:37.677Z,14.70
2019-02-17T16:53:05.264Z,14.50
2019-02-17T16:55:32.874Z,14.40
2019-02-17T16:58:01.472Z,14.10
2019-02-17T17:00:29.075Z,14.00
2019-02-17T17:02:57.077Z,13.90
2019-02-17T17:05:24.673Z,13.70
2019-02-17T17:07:52.251Z,13.60
2019-02-17T17:10:19.880Z,13.40
2019-02-17T17:12:47.473Z,13.30
2019-02-17T17:15:15.067Z,13.10
2019-02-17T17:17:42.714Z,12.90
2019-02-17T17:20:10.321Z,12.80
2019-02-17T17:22:37.874Z,12.70
2019-02-17T17:25:06.721Z,12.40
2019-02-17T17:27:34.296Z,12.40
2019-02-17T17:30:01.916Z,12.30
2019-02-17T17:32:29.539Z,12.20
2019-02-17T17:34:59.194Z,12.00
2019-02-17T17:37:24.693Z,11.90
2019-02-17T17:39:52.361Z,11.70
2019-02-17T17:42:19.911Z,11.60
2019-02-17T17:44:48.249Z,11.40
2019-02-17T17:47:15.881Z,11.40
2019-02-17T17:49:43.465Z,11.30
2019-02-17T17:52:11.048Z,11.20
2019-02-17T17:54:38.679Z,11.10
2019-02-17T17:57:06.268Z,10.90
2019-02-17T17:59:33.871Z,10.80
2019-02-17T18:02:01.490Z,10.60
2019-02-17T18:04:29.086Z,10.60
2019-02-17T18:06:57.433Z,10.40
2019-02-17T18:09:25.444Z,10.40
2019-02-17T18:11:52.994Z,10.30
2019-02-17T18:14:22.877Z,10.00
2019-02-17T18:16:50.500Z,9.90
2019-02-17T18:19:18.123Z,9.80
2019-02-17T18:21:45.682Z,9.70
2019-02-17T18:24:14.498Z,9.70
2019-02-17T18:26:42.094Z,9.60
2019-02-17T18:29:09.675Z,9.50
2019-02-17T18:31:37.307Z,9.40
2019-02-17T18:34:04.890Z,9.40
2019-02-17T18:36:33.063Z,9.40
2019-02-17T18:39:00.755Z,9.40
2019-02-17T18:41:28.343Z,9.30
2019-02-17T18:43:55.947Z,9.20
2019-02-17T18:46:23.559Z,9.10
2019-02-17T18:48:51.942Z,8.90
2019-02-17T18:51:19.493Z,8.90
2019-02-17T18:53:48.370Z,8.70
2019-02-17T18:56:15.951Z,8.60
2019-02-17T18:58:44.294Z,8.50
2019-02-17T19:01:11.923Z,8.40
2019-02-17T19:03:39.510Z,8.30
2019-02-17T19:06:07.101Z,8.20
2019-02-17T19:08:34.737Z,8.10
2019-02-17T19:11:02.319Z,7.90
2019-02-17T19:13:29.910Z,7.80
2019-02-17T19:15:58.708Z,7.70
2019-02-17T19:18:26.262Z,7.70
2019-02-17T19:20:53.888Z,7.70
2019-02-17T19:23:21.547Z,7.60
2019-02-17T19:25:49.128Z,7.50
2019-02-17T19:28:16.723Z,7.40
2019-02-17T19:30:44.354Z,7.30
2019-02-17T19:33:11.931Z,7.20
2019-02-17T19:35:42.188Z,7.00
2019-02-17T19:38:07.899Z,7.00
2019-02-17T19:40:35.501Z,6.90
2019-02-17T19:43:03.603Z,7.00
2019-02-17T19:45:31.663Z,7.10
2019-02-17T19:47:59.296Z,7.00
2019-02-17T19:50:26.868Z,6.90
2019-02-17T19:52:54.961Z,6.80
2019-02-17T19:55:22.575Z,6.70
2019-02-17T19:57:50.141Z,6.50
2019-02-17T20:00:17.767Z,6.50
2019-02-17T20:02:46.118Z,6.30
2019-02-17T20:05:13.721Z,6.30
2019-02-17T20:07:41.344Z,6.20
2019-02-17T20:10:08.925Z,6.10
2019-02-17T20:12:37.140Z,6.00
2019-02-17T20:15:04.762Z,6.00
2019-02-17T20:17:32.345Z,6.10
2019-02-17T20:19:59.924Z,6.10
2019-02-17T20:22:27.834Z,6.00
2019-02-17T20:24:55.419Z,5.90
2019-02-17T20:27:23.768Z,5.70
2019-02-17T20:29:51.415Z,5.70
2019-02-17T20:32:18.975Z,5.70
2019-02-17T20:34:46.553Z,5.60
2019-02-17T20:37:14.166Z,5.50
2019-02-17T20:39:41.743Z,5.50
2019-02-17T20:42:09.333Z,5.40
2019-02-17T20:44:36.980Z,5.40
2019-02-17T20:47:04.565Z,5.20
2019-02-17T20:49:32.150Z,5.20
2019-02-17T20:52:00.539Z,5.10
2019-02-17T20:54:28.121Z,5.00
2019-02-17T20:56:55.740Z,5.10
2019-02-17T20:59:24.701Z,5.10
2019-02-17T21:01:52.673Z,5.00
2019-02-17T21:04:20.504Z,4.90
2019-02-17T21:06:48.828Z,4.80
2019-02-17T21:09:16.415Z,4.70
2019-02-17T21:11:43.998Z,4.60
2019-02-17T21:14:12.418Z,4.40
2019-02-17T21:16:40.011Z,4.40
2019-02-17T21:19:07.604Z,4.40
2019-02-17T21:21:35.996Z,4.50
2019-02-17T21:24:03.582Z,4.40
2019-02-17T21:26:31.159Z,4.50
2019-02-17T21:28:58.770Z,4.40
2019-02-17T21:31:26.359Z,4.40
2019-02-17T21:33:53.937Z,4.50
2019-02-17T21:36:23.427Z,4.50
2019-02-17T21:38:49.160Z,4.40
2019-02-17T21:41:16.743Z,4.30
2019-02-17T21:43:44.353Z,4.20
2019-02-17T21:46:11.947Z,4.10
2019-02-17T21:48:39.526Z,4.00
2019-02-17T21:51:07.138Z,4.00
2019-02-17T21:53:34.760Z,3.90
2019-02-17T21:56:02.327Z,3.90
2019-02-17T21:58:29.960Z,3.80
2019-02-17T22:00:57.566Z,3.80
2019-02-17T22:03:25.921Z,3.70
2019-02-17T22:05:53.554Z,3.70
2019-02-17T22:08:21.163Z,3.70
2019-02-17T22:10:49.527Z,3.80
2019-02-17T22:13:17.152Z,3.90
2019-02-17T22:15:44.759Z,3.80
2019-02-17T22:18:13.415Z,3.90
2019-02-17T22:20:41.587Z,3.90
2019-02-17T22:23:09.188Z,3.80
2019-02-17T22:25:36.817Z,3.70
2019-02-17T22:28:04.395Z,3.70
2019-02-17T22:30:31.991Z,3.70
2019-02-17T22:32:59.588Z,3.70
2019-02-17T22:35:27.569Z,3.80
2019-02-17T22:37:55.160Z,3.70
2019-02-17T22:40:22.754Z,3.60
2019-02-17T22:42:51.632Z,3.50
2019-02-17T22:45:19.296Z,3.50
2019-02-17T22:47:46.792Z,3.40
2019-02-17T22:50:14.405Z,3.30
2019-02-17T22:52:42.016Z,3.20
2019-02-17T22:55:09.625Z,3.20
2019-02-17T22:57:37.393Z,3.10
2019-02-17T23:00:04.971Z,3.00
2019-02-17T23:02:32.565Z,2.90
2019-02-17T23:05:00.401Z,2.80
2019-02-17T23:07:27.824Z,2.70
2019-02-17T23:09:55.458Z,2.70
2019-02-17T23:12:23.337Z,2.70
2019-02-17T23:14:50.925Z,2.60
2019-02-17T23:17:18.510Z,2.60
2019-02-17T23:19:46.130Z,2.60
2019-02-17T23:22:13.711Z,2.60
2019-02-17T23:24:41.288Z,2.50
2019-02-17T23:27:09.695Z,2.70
2019-02-17T23:29:37.277Z,2.70
2019-02-17T23:32:04.860Z,2.80
2019-02-17T23:34:32.484Z,2.80
2019-02-17T23:37:04.009Z,2.80
2019-02-17T23:39:27.654Z,2.90
2019-02-17T23:41:58.000Z,2.80
2019-02-17T23:44:25.583Z,2.70
2019-02-17T23:46:53.165Z,2.60
2019-02-17T23:49:21.264Z,2.50
2019-02-17T23:51:48.844Z,2.50
2019-02-17T23:54:16.433Z,2.40
2019-02-17T23:56:44.820Z,2.40
2019-02-17T23:59:13.177Z,2.30
